Time;durP1;ratioP1;P1;durP2;ratioP2;P2;SDS_P1;SDS_P2;PMS_P1;PMS_P2;Temp;Humidity;BMP_temperature;BMP_pressure;BME280_temperature;BME280_humidity;BME280_pressure;Samples;Min_cycle;Max_cycle;Signal;HPM_P1;HPM_P2
2023/02/18 00:00:07;;;;;;;0.40;0.40;;;8.90;99.90;;;;;;5067283;28;20483;-83
2023/02/18 00:02:33;;;;;;;0.55;0.55;;;8.80;99.90;;;;;;5060896;28;20175;-85
2023/02/18 00:04:59;;;;;;;0.10;0.10;;;8.80;99.90;;;;;;5065586;28;20873;-84
2023/02/18 00:07:24;;;;;;;0.38;0.38;;;8.80;99.90;;;;;;5065553;28;20032;-85
2023/02/18 00:09:50;;;;;;;0.20;0.20;;;8.70;99.90;;;;;;5065381;28;20021;-85
2023/02/18 00:12:16;;;;;;;0.40;0.40;;;8.70;99.90;;;;;;5064842;28;20033;-83
2023/02/18 00:14:42;;;;;;;0.10;0.10;;;8.70;99.90;;;;;;5063663;28;20032;-86
2023/02/18 00:17:07;;;;;;;0.20;0.20;;;8.70;99.90;;;;;;5065430;28;20039;-83
2023/02/18 00:19:33;;;;;;;0.98;0.85;;;8.60;99.90;;;;;;5062818;28;20036;-86
2023/02/18 00:21:59;;;;;;;0.20;0.20;;;8.50;99.90;;;;;;5062506;28;20032;-84
2023/02/18 00:24:24;;;;;;;0.10;0.10;;;8.60;99.90;;;;;;5062910;28;20035;-86
2023/02/18 00:26:51;;;;;;;1.65;0.85;;;8.50;99.90;;;;;;5059052;28;20029;-84
2023/02/18 00:29:19;;;;;;;0.20;0.20;;;8.40;99.90;;;;;;5054154;28;20919;-84
2023/02/18 00:31:45;;;;;;;0.20;0.20;;;8.30;99.90;;;;;;5059363;28;20478;-83
2023/02/18 00:34:12;;;;;;;0.22;0.22;;;8.30;99.90;;;;;;5062914;28;20522;-85
2023/02/18 00:36:38;;;;;;;0.38;0.30;;;8.40;99.90;;;;;;5064926;28;20534;-83
2023/02/18 00:39:07;;;;;;;1.08;0.30;;;8.40;99.90;;;;;;5064401;28;20563;-86
2023/02/18 00:41:34;;;;;;;3.90;1.55;;;8.30;99.90;;;;;;5064843;28;20052;-86
2023/02/18 00:44:00;;;;;;;0.75;0.75;;;8.30;99.90;;;;;;5063811;28;20021;-85
2023/02/18 00:46:27;;;;;;;0.10;0.10;;;8.30;99.90;;;;;;5063940;28;20024;-85
2023/02/18 00:48:53;;;;;;;0.30;0.30;;;8.30;99.90;;;;;;5063443;28;20028;-83
2023/02/18 00:51:19;;;;;;;0.20;0.20;;;8.20;99.90;;;;;;5064198;28;20135;-84
2023/02/18 00:53:45;;;;;;;0.50;0.50;;;8.10;99.90;;;;;;5064338;28;20032;-84
2023/02/18 00:56:10;;;;;;;0.30;0.30;;;8.00;99.90;;;;;;5064896;28;20480;-84
2023/02/18 00:58:36;;;;;;;0.52;0.40;;;8.00;99.90;;;;;;5061002;28;20025;-83
2023/02/18 01:01:03;;;;;;;0.20;0.20;;;8.10;99.90;;;;;;5060234;28;20067;-84
2023/02/18 01:03:29;;;;;;;0.75;0.75;;;8.10;99.90;;;;;;5061369;28;20080;-85
2023/02/18 01:05:54;;;;;;;0.30;0.30;;;8.00;99.90;;;;;;5057771;28;20458;-85
2023/02/18 01:08:21;;;;;;;0.10;0.10;;;7.90;99.90;;;;;;5061694;28;20040;-88
2023/02/18 01:10:49;;;;;;;0.88;0.85;;;7.80;99.90;;;;;;5062619;28;20029;-87
2023/02/18 01:13:15;;;;;;;0.45;0.38;;;7.70;99.90;;;;;;5062049;28;20035;-86
2023/02/18 01:15:42;;;;;;;0.63;0.63;;;7.70;99.90;;;;;;5058344;28;20044;-86
2023/02/18 01:18:08;;;;;;;0.88;0.88;;;7.70;99.90;;;;;;5060683;28;20403;-84
2023/02/18 01:20:36;;;;;;;0.40;0.40;;;7.70;99.90;;;;;;5061790;28;20040;-85
2023/02/18 01:23:03;;;;;;;0.88;0.88;;;7.70;99.90;;;;;;5060916;28;20142;-87
2023/02/18 01:25:29;;;;;;;0.20;0.20;;;7.70;99.90;;;;;;5059692;28;20474;-84
2023/02/18 01:27:55;;;;;;;0.20;0.20;;;7.60;99.90;;;;;;5060549;28;20085;-84
2023/02/18 01:30:22;;;;;;;1.30;0.73;;;7.60;99.90;;;;;;5060441;28;20029;-84
2023/02/18 01:32:48;;;;;;;0.20;0.20;;;7.60;99.90;;;;;;5060252;28;20063;-84
2023/02/18 01:35:16;;;;;;;0.38;0.35;;;7.50;99.90;;;;;;5061541;28;20123;-85
2023/02/18 01:37:42;;;;;;;0.73;0.73;;;7.50;99.90;;;;;;5063395;28;20028;-86
2023/02/18 01:40:11;;;;;;;0.20;0.20;;;7.50;99.90;;;;;;5063560;28;20136;-83
2023/02/18 01:42:37;;;;;;;0.20;0.20;;;7.50;99.90;;;;;;5062388;28;20035;-84
2023/02/18 01:45:37;;;;;;;0.35;0.35;;;7.40;99.90;;;;;;5064078;28;20029;-83
2023/02/18 01:48:05;;;;;;;0.32;0.32;;;7.50;99.90;;;;;;5062715;28;20028;-83
2023/02/18 01:50:34;;;;;;;0.30;0.30;;;7.40;99.90;;;;;;5064227;28;20052;-83
2023/02/18 01:53:01;;;;;;;0.75;0.60;;;7.40;99.90;;;;;;5063049;28;20024;-85
2023/02/18 01:55:27;;;;;;;0.20;0.20;;;7.40;99.90;;;;;;5063314;28;20040;-85
2023/02/18 01:57:53;;;;;;;0.65;0.65;;;7.40;99.90;;;;;;5061982;28;20036;-85
2023/02/18 02:00:22;;;;;;;1.30;0.28;;;7.40;99.90;;;;;;5059583;28;20511;-84
2023/02/18 02:02:51;;;;;;;0.55;0.55;;;7.30;99.90;;;;;;5056300;28;20063;-84
2023/02/18 02:05:18;;;;;;;1.08;1.08;;;7.30;99.90;;;;;;5060581;28;20444;-84
2023/02/18 02:07:46;;;;;;;0.20;0.20;;;7.30;99.90;;;;;;5059557;28;20507;-84
2023/02/18 02:10:13;;;;;;;0.75;0.75;;;7.30;99.90;;;;;;5058868;28;20033;-84
2023/02/18 02:12:39;;;;;;;0.30;0.30;;;7.20;99.90;;;;;;5060559;28;20028;-84
2023/02/18 02:15:35;;;;;;;0.10;0.10;;;7.20;99.90;;;;;;5057289;28;20066;-86
2023/02/18 02:18:24;;;;;;;0.15;0.15;;;7.20;99.90;;;;;;5055528;28;20067;-83
2023/02/18 02:20:53;;;;;;;0.30;0.30;;;7.10;99.90;;;;;;5060944;28;20021;-85
2023/02/18 02:24:14;;;;;;;0.10;0.10;;;7.20;99.90;;;;;;5061209;28;20032;-84
2023/02/18 02:26:58;;;;;;;0.40;0.40;;;7.20;99.90;;;;;;5021817;28;20032;-84
2023/02/18 02:30:07;;;;;;;0.20;0.20;;;7.10;99.90;;;;;;5059778;28;20024;-85
2023/02/18 02:33:10;;;;;;;0.52;0.52;;;7.00;99.90;;;;;;5053892;28;20051;-84
2023/02/18 02:36:02;;;;;;;0.10;0.10;;;7.10;99.90;;;;;;5048703;28;20044;-85
2023/02/18 02:38:37;;;;;;;0.55;0.55;;;7.00;99.90;;;;;;5055597;28;20036;-84
2023/02/18 02:41:14;;;;;;;0.10;0.10;;;7.00;99.90;;;;;;5061585;28;20029;-85
2023/02/18 02:43:57;;;;;;;2.28;0.80;;;7.00;99.90;;;;;;5054629;28;20032;-84
2023/02/18 02:46:30;;;;;;;1.95;0.50;;;7.00;99.90;;;;;;5059131;28;20036;-84
2023/02/18 02:49:18;;;;;;;1.95;0.90;;;7.00;99.90;;;;;;5061767;28;20055;-84
2023/02/18 02:52:04;;;;;;;0.50;0.50;;;7.00;99.90;;;;;;5061763;28;20574;-85
2023/02/18 02:54:30;;;;;;;0.67;0.67;;;7.00;99.90;;;;;;5060483;28;20082;-87
2023/02/18 02:57:17;;;;;;;0.65;0.65;;;6.90;99.90;;;;;;5058662;28;20028;-87
2023/02/18 02:59:47;;;;;;;0.32;0.32;;;6.90;99.90;;;;;;5047603;28;20033;-86
2023/02/18 03:02:48;;;;;;;0.28;0.28;;;6.90;99.90;;;;;;5056824;28;20052;-85
2023/02/18 03:05:32;;;;;;;0.15;0.15;;;6.90;99.90;;;;;;5059222;28;20037;-84
2023/02/18 03:08:10;;;;;;;1.02;0.98;;;6.90;99.90;;;;;;5059811;28;20839;-87
2023/02/18 03:10:58;;;;;;;0.50;0.50;;;7.00;99.90;;;;;;5059272;28;20047;-85
2023/02/18 03:13:48;;;;;;;0.20;0.20;;;7.00;99.90;;;;;;5059132;28;20594;-86
2023/02/18 03:16:32;;;;;;;0.30;0.30;;;6.90;99.90;;;;;;5057160;28;20470;-85
2023/02/18 03:19:28;;;;;;;0.43;0.43;;;6.90;99.90;;;;;;5057846;28;20032;-85
2023/02/18 03:22:12;;;;;;;0.10;0.10;;;6.80;99.90;;;;;;5058828;28;20043;-85
2023/02/18 03:24:41;;;;;;;0.10;0.10;;;6.80;99.90;;;;;;5059271;28;20043;-88
2023/02/18 03:27:44;;;;;;;1.15;0.95;;;6.70;99.90;;;;;;5058387;28;20025;-86
2023/02/18 03:30:20;;;;;;;0.20;0.20;;;6.70;99.90;;;;;;5057948;28;20027;-84
2023/02/18 03:32:48;;;;;;;0.40;0.40;;;6.60;99.90;;;;;;5060547;28;20675;-82
2023/02/18 03:35:17;;;;;;;0.80;0.77;;;6.60;99.90;;;;;;5059600;28;20040;-82
2023/02/18 03:37:51;;;;;;;0.45;0.32;;;6.50;99.90;;;;;;5056428;28;20024;-82
2023/02/18 03:40:18;;;;;;;0.38;0.32;;;6.50;99.90;;;;;;5062357;28;20035;-84
2023/02/18 03:42:44;;;;;;;1.17;1.08;;;6.30;99.90;;;;;;5061783;28;20850;-85
2023/02/18 03:45:10;;;;;;;0.20;0.20;;;6.30;99.90;;;;;;5062320;28;20047;-85
2023/02/18 03:47:35;;;;;;;0.63;0.63;;;6.30;99.90;;;;;;5060892;28;20028;-82
2023/02/18 03:50:01;;;;;;;0.30;0.30;;;6.40;99.90;;;;;;5062506;28;20036;-85
2023/02/18 03:52:27;;;;;;;0.70;0.55;;;6.30;99.90;;;;;;5060727;28;20202;-85
2023/02/18 03:54:53;;;;;;;0.93;0.85;;;6.30;99.90;;;;;;5061478;28;20115;-83
2023/02/18 03:57:19;;;;;;;0.73;0.73;;;6.20;99.90;;;;;;5062030;28;20031;-83
2023/02/18 03:59:44;;;;;;;0.20;0.20;;;6.20;99.90;;;;;;5061758;28;20064;-84
2023/02/18 04:02:10;;;;;;;1.58;1.15;;;6.20;99.90;;;;;;5057193;28;20098;-85
2023/02/18 04:04:36;;;;;;;0.98;0.98;;;6.30;99.90;;;;;;5061221;28;20040;-84
2023/02/18 04:07:01;;;;;;;0.10;0.10;;;6.20;99.90;;;;;;5059111;28;20036;-84
2023/02/18 04:09:27;;;;;;;0.03;0.03;;;6.20;99.90;;;;;;5059872;28;20024;-84
2023/02/18 04:11:53;;;;;;;0.10;0.10;;;6.10;99.90;;;;;;5058960;28;20611;-84
2023/02/18 04:14:18;;;;;;;0.43;0.43;;;6.10;99.90;;;;;;5056931;28;20036;-84
2023/02/18 04:16:44;;;;;;;0.52;0.52;;;6.10;99.90;;;;;;5057846;28;20035;-83
2023/02/18 04:19:10;;;;;;;0.50;0.50;;;6.10;99.90;;;;;;5059420;28;20063;-84
2023/02/18 04:21:36;;;;;;;1.40;1.30;;;6.10;99.90;;;;;;5061985;28;20032;-85
2023/02/18 04:24:01;;;;;;;1.98;0.90;;;6.10;99.90;;;;;;5061917;28;20105;-86
2023/02/18 04:26:27;;;;;;;0.80;0.60;;;6.10;99.90;;;;;;5061789;28;20904;-85
2023/02/18 04:28:53;;;;;;;1.20;0.85;;;6.10;99.90;;;;;;5062482;28;20041;-84
2023/02/18 04:31:18;;;;;;;0.20;0.20;;;6.10;99.90;;;;;;5063286;28;20492;-84
2023/02/18 04:33:45;;;;;;;0.93;0.73;;;6.00;99.90;;;;;;5063635;28;20025;-82
2023/02/18 04:36:10;;;;;;;0.53;0.40;;;6.10;99.90;;;;;;5063415;28;20068;-86
2023/02/18 04:38:36;;;;;;;0.30;0.30;;;6.00;99.90;;;;;;5063552;28;20373;-84
2023/02/18 04:41:02;;;;;;;0.73;0.73;;;6.00;99.90;;;;;;5062824;28;20577;-84
2023/02/18 04:43:27;;;;;;;1.08;0.98;;;6.00;99.90;;;;;;5062583;28;20137;-84
2023/02/18 04:45:53;;;;;;;1.92;0.75;;;6.00;99.90;;;;;;5062919;28;20437;-82
2023/02/18 04:48:19;;;;;;;0.20;0.20;;;5.90;99.90;;;;;;5061636;28;20107;-84
2023/02/18 04:50:45;;;;;;;0.80;0.75;;;5.90;99.90;;;;;;5059474;28;20112;-84
2023/02/18 04:53:10;;;;;;;1.85;0.80;;;5.80;99.90;;;;;;5061398;28;20029;-84
2023/02/18 04:55:36;;;;;;;0.50;0.50;;;5.80;99.90;;;;;;5059950;28;20036;-83
2023/02/18 04:58:02;;;;;;;0.20;0.20;;;5.80;99.90;;;;;;5062618;28;20750;-82
2023/02/18 05:00:28;;;;;;;0.65;0.65;;;5.80;99.90;;;;;;5062311;28;20605;-83
2023/02/18 05:02:54;;;;;;;1.45;0.55;;;5.80;99.90;;;;;;5061128;28;20051;-84
2023/02/18 05:05:20;;;;;;;0.40;0.40;;;5.80;99.90;;;;;;5062943;28;20107;-83
2023/02/18 05:07:46;;;;;;;1.13;1.13;;;5.80;99.90;;;;;;5062111;28;20488;-82
2023/02/18 05:10:16;;;;;;;0.10;0.10;;;5.80;99.90;;;;;;5063036;28;20032;-83
2023/02/18 05:12:41;;;;;;;0.30;0.30;;;5.80;99.90;;;;;;5058352;28;20029;-83
2023/02/18 05:15:08;;;;;;;0.65;0.65;;;5.80;99.90;;;;;;5061592;28;20063;-82
2023/02/18 05:17:34;;;;;;;0.30;0.30;;;5.70;99.90;;;;;;5062141;28;20039;-88
2023/02/18 05:20:01;;;;;;;0.23;0.23;;;5.70;99.90;;;;;;5060572;28;20040;-86
2023/02/18 05:22:27;;;;;;;0.10;0.10;;;5.60;99.90;;;;;;5052138;28;20029;-86
2023/02/18 05:24:52;;;;;;;0.13;0.13;;;5.60;99.90;;;;;;5062068;28;20036;-83
2023/02/18 05:27:18;;;;;;;0.98;0.75;;;5.70;99.90;;;;;;5060000;28;20467;-84
2023/02/18 05:29:44;;;;;;;0.10;0.10;;;5.70;99.90;;;;;;5060671;28;20090;-85
2023/02/18 05:32:09;;;;;;;1.23;0.93;;;5.80;99.90;;;;;;5059396;28;20119;-84
2023/02/18 05:34:35;;;;;;;0.85;0.85;;;5.80;99.90;;;;;;5061043;28;20032;-85
2023/02/18 05:37:01;;;;;;;0.20;0.20;;;5.80;99.90;;;;;;5060101;28;20028;-84
2023/02/18 05:39:26;;;;;;;0.57;0.57;;;5.80;99.90;;;;;;5062081;28;20063;-82
2023/02/18 05:41:52;;;;;;;0.25;0.25;;;5.80;99.90;;;;;;5060791;28;20035;-81
2023/02/18 05:44:31;;;;;;;0.57;0.40;;;5.70;99.90;;;;;;5060876;28;20033;-84
2023/02/18 05:47:02;;;;;;;0.35;0.35;;;5.80;99.90;;;;;;5065885;28;20025;-85
2023/02/18 05:49:29;;;;;;;0.10;0.10;;;5.80;99.90;;;;;;5059647;28;20025;-85
2023/02/18 05:51:56;;;;;;;0.10;0.10;;;5.70;99.90;;;;;;5059907;28;20024;-83
2023/02/18 05:54:21;;;;;;;0.20;0.20;;;5.70;99.90;;;;;;5061541;28;20508;-85
2023/02/18 05:56:47;;;;;;;0.20;0.20;;;5.80;99.90;;;;;;5057630;28;20098;-84
2023/02/18 05:59:13;;;;;;;0.52;0.52;;;5.70;99.90;;;;;;5061110;28;20040;-85
2023/02/18 06:01:39;;;;;;;0.10;0.10;;;5.60;99.90;;;;;;5054102;28;20120;-82
2023/02/18 06:04:05;;;;;;;0.47;0.47;;;5.50;99.90;;;;;;5059113;28;20086;-81
2023/02/18 06:06:31;;;;;;;0.20;0.20;;;5.50;99.90;;;;;;5061306;28;20068;-82
2023/02/18 06:08:57;;;;;;;0.20;0.20;;;5.40;99.90;;;;;;5057119;28;20116;-81
2023/02/18 06:11:22;;;;;;;0.70;0.70;;;5.40;99.90;;;;;;5059173;28;20035;-81
2023/02/18 06:13:48;;;;;;;0.28;0.28;;;5.40;99.90;;;;;;5058982;28;20075;-82
2023/02/18 06:16:14;;;;;;;0.25;0.25;;;5.30;99.90;;;;;;5061526;28;20125;-82
2023/02/18 06:18:40;;;;;;;0.47;0.47;;;5.30;99.90;;;;;;5059164;28;20036;-82
2023/02/18 06:21:06;;;;;;;0.20;0.20;;;5.30;99.90;;;;;;5059062;28;20060;-82
2023/02/18 06:23:32;;;;;;;0.85;0.85;;;5.30;99.90;;;;;;5058691;28;20063;-82
2023/02/18 06:25:57;;;;;;;0.28;0.28;;;5.30;99.90;;;;;;5060152;28;20884;-82
2023/02/18 06:28:23;;;;;;;0.05;0.05;;;5.30;99.90;;;;;;5060431;28;20028;-82
2023/02/18 06:30:49;;;;;;;0.20;0.20;;;5.20;99.90;;;;;;5058475;28;20443;-83
2023/02/18 06:33:15;;;;;;;0.32;0.32;;;5.20;99.90;;;;;;5058045;28;20100;-82
2023/02/18 06:35:41;;;;;;;0.38;0.38;;;5.20;99.90;;;;;;5061005;28;20044;-82
2023/02/18 06:38:08;;;;;;;0.10;0.10;;;5.20;99.90;;;;;;5058907;28;20127;-83
2023/02/18 06:40:33;;;;;;;0.30;0.30;;;5.20;99.90;;;;;;5056422;28;20033;-84
2023/02/18 06:42:59;;;;;;;0.20;0.20;;;5.20;99.90;;;;;;5058882;28;20024;-83
2023/02/18 06:45:25;;;;;;;1.35;0.65;;;5.10;99.90;;;;;;5059520;28;20040;-85
2023/02/18 06:47:50;;;;;;;0.70;0.70;;;5.10;99.90;;;;;;5059663;28;20056;-86
2023/02/18 06:50:18;;;;;;;0.70;0.47;;;5.10;99.90;;;;;;5057142;28;20737;-87
2023/02/18 06:52:44;;;;;;;0.28;0.28;;;5.10;99.90;;;;;;5058653;28;20032;-82
2023/02/18 06:55:10;;;;;;;0.10;0.10;;;5.10;99.90;;;;;;5057924;28;20033;-83
2023/02/18 06:57:36;;;;;;;0.25;0.25;;;5.20;99.90;;;;;;5060552;28;20039;-85
2023/02/18 07:00:04;;;;;;;0.22;0.22;;;5.20;99.90;;;;;;5059341;28;20052;-86
2023/02/18 07:02:30;;;;;;;0.00;0.00;;;5.30;99.90;;;;;;5058897;28;20057;-82
2023/02/18 07:04:55;;;;;;;0.30;0.30;;;5.30;99.90;;;;;;5056378;28;20055;-83
2023/02/18 07:07:21;;;;;;;4.38;0.45;;;5.40;99.90;;;;;;5059411;28;20150;-81
2023/02/18 07:09:47;;;;;;;0.30;0.30;;;5.60;99.90;;;;;;5060459;28;20044;-79
2023/02/18 07:12:12;;;;;;;1.27;0.98;;;6.00;99.90;;;;;;5062660;28;20033;-80
2023/02/18 07:14:38;;;;;;;0.22;0.22;;;7.10;99.90;;;;;;5061988;28;20804;-81
2023/02/18 07:17:04;;;;;;;0.43;0.32;;;7.80;99.90;;;;;;5062231;28;20640;-79
2023/02/18 07:19:30;;;;;;;0.47;0.38;;;8.20;99.90;;;;;;5062683;28;20025;-79
2023/02/18 07:21:56;;;;;;;0.82;0.82;;;8.50;99.90;;;;;;5062828;28;20183;-80
2023/02/18 07:24:22;;;;;;;0.93;0.93;;;9.00;99.90;;;;;;5055008;28;20488;-80
2023/02/18 07:26:48;;;;;;;0.57;0.57;;;9.20;99.90;;;;;;5058381;28;20070;-81
2023/02/18 07:29:14;;;;;;;0.25;0.25;;;9.40;99.90;;;;;;5060572;28;20562;-81
2023/02/18 07:31:40;;;;;;;1.63;1.13;;;9.70;99.90;;;;;;5046633;28;20247;-80
2023/02/18 07:34:05;;;;;;;0.20;0.20;;;10.00;99.90;;;;;;5047965;28;20057;-80
2023/02/18 07:36:31;;;;;;;2.90;1.23;;;10.30;99.90;;;;;;5055764;28;20028;-80
2023/02/18 07:38:57;;;;;;;1.35;1.25;;;10.50;99.90;;;;;;5056644;28;20029;-80
2023/02/18 07:41:22;;;;;;;0.15;0.15;;;10.50;99.90;;;;;;5057681;28;20032;-81
2023/02/18 07:43:49;;;;;;;0.20;0.17;;;10.80;99.90;;;;;;5056439;28;20030;-82
2023/02/18 07:46:15;;;;;;;0.40;0.40;;;11.00;99.90;;;;;;5054218;28;20036;-81
2023/02/18 07:48:41;;;;;;;0.63;0.63;;;11.10;99.90;;;;;;5055278;28;20289;-82
2023/02/18 07:51:09;;;;;;;0.35;0.32;;;11.30;99.90;;;;;;5049861;28;20119;-81
2023/02/18 07:53:35;;;;;;;0.63;0.55;;;10.70;99.90;;;;;;5048036;28;20610;-81
2023/02/18 07:56:01;;;;;;;0.20;0.20;;;9.70;99.90;;;;;;5055388;28;20507;-82
2023/02/18 07:58:30;;;;;;;0.75;0.75;;;9.00;99.90;;;;;;5050818;28;20025;-92
2023/02/18 08:00:56;;;;;;;0.63;0.47;;;8.80;99.90;;;;;;5062081;28;20016;-86
2023/02/18 08:03:24;;;;;;;0.20;0.20;;;9.60;99.90;;;;;;5048532;28;20061;-88
2023/02/18 08:05:51;;;;;;;0.35;0.35;;;9.20;99.90;;;;;;5055206;28;20036;-86
2023/02/18 08:08:23;;;;;;;0.32;0.32;;;10.40;99.90;;;;;;5047504;28;20476;-86
2023/02/18 08:10:50;;;;;;;0.20;0.20;;;11.00;99.90;;;;;;5050006;28;20020;-86
2023/02/18 08:13:16;;;;;;;0.77;0.77;;;10.40;99.90;;;;;;5052416;28;20029;-84
2023/02/18 08:15:42;;;;;;;0.75;0.75;;;10.30;99.90;;;;;;5053584;28;20029;-87
2023/02/18 08:18:17;;;;;;;0.40;0.40;;;9.70;99.90;;;;;;5056178;28;20036;-84
2023/02/18 08:20:44;;;;;;;0.20;0.20;;;9.50;99.90;;;;;;5058795;28;20443;-85
2023/02/18 08:23:10;;;;;;;0.30;0.30;;;9.40;99.90;;;;;;5053336;28;20400;-85
2023/02/18 08:25:36;;;;;;;0.10;0.10;;;9.20;99.90;;;;;;5063159;28;20749;-85
2023/02/18 08:28:02;;;;;;;0.32;0.32;;;10.00;99.90;;;;;;5062508;28;20035;-81
2023/02/18 08:30:28;;;;;;;0.65;0.47;;;10.90;99.90;;;;;;5052408;28;20025;-81
2023/02/18 08:32:54;;;;;;;0.50;0.50;;;11.10;99.90;;;;;;5053846;28;20385;-80
2023/02/18 08:35:19;;;;;;;0.30;0.30;;;11.40;99.90;;;;;;5066214;28;20583;-80
2023/02/18 08:37:45;;;;;;;3.83;0.85;;;11.50;99.90;;;;;;5063705;28;20024;-80
2023/02/18 08:40:12;;;;;;;0.65;0.55;;;11.50;99.90;;;;;;5065064;28;20032;-81
2023/02/18 08:42:38;;;;;;;0.17;0.17;;;11.70;99.90;;;;;;5063146;28;20089;-81
2023/02/18 08:45:05;;;;;;;0.10;0.10;;;11.90;99.90;;;;;;5063422;28;20036;-81
2023/02/18 08:47:30;;;;;;;0.65;0.43;;;11.90;99.90;;;;;;5071374;28;20485;-80
2023/02/18 08:49:56;;;;;;;0.10;0.10;;;12.10;99.70;;;;;;5062375;28;20031;-79
2023/02/18 08:52:22;;;;;;;0.10;0.10;;;12.40;98.90;;;;;;5061729;28;20037;-81
2023/02/18 08:54:48;;;;;;;0.37;0.37;;;12.50;98.30;;;;;;5061001;28;20036;-80
2023/02/18 08:57:14;;;;;;;0.43;0.43;;;12.40;98.40;;;;;;5064281;28;20046;-80
2023/02/18 08:59:39;;;;;;;0.30;0.30;;;12.30;98.30;;;;;;5064852;28;20036;-80
2023/02/18 09:02:05;;;;;;;0.25;0.25;;;12.40;98.40;;;;;;5068207;28;20044;-80
2023/02/18 09:04:32;;;;;;;0.23;0.23;;;12.50;98.10;;;;;;5064694;28;20808;-81
2023/02/18 09:06:57;;;;;;;0.43;0.43;;;13.10;96.90;;;;;;5062531;28;20578;-79
2023/02/18 09:09:23;;;;;;;0.40;0.40;;;13.90;95.00;;;;;;5064497;28;20036;-79
2023/02/18 09:11:49;;;;;;;0.43;0.43;;;14.40;94.00;;;;;;5063036;28;20036;-80
2023/02/18 09:14:15;;;;;;;0.10;0.10;;;15.40;92.70;;;;;;5057519;28;20458;-80
2023/02/18 09:16:42;;;;;;;0.10;0.10;;;15.00;92.80;;;;;;5056632;28;20032;-82
2023/02/18 09:19:08;;;;;;;1.65;0.98;;;14.70;93.70;;;;;;5064599;28;20032;-80
2023/02/18 09:21:34;;;;;;;0.20;0.20;;;14.60;93.10;;;;;;5059125;28;20695;-80
2023/02/18 09:24:00;;;;;;;0.97;0.97;;;13.50;93.90;;;;;;5061406;28;20039;-81
2023/02/18 09:26:26;;;;;;;0.28;0.28;;;13.50;94.30;;;;;;5055580;28;20028;-81
2023/02/18 09:28:54;;;;;;;0.20;0.20;;;13.20;94.60;;;;;;5064453;28;20025;-81
2023/02/18 09:31:22;;;;;;;0.20;0.20;;;13.30;94.80;;;;;;5063429;28;20056;-79
2023/02/18 09:33:56;;;;;;;0.30;0.30;;;13.60;94.90;;;;;;5064548;28;20036;-80
2023/02/18 09:36:22;;;;;;;3.03;1.00;;;13.60;94.00;;;;;;5063817;28;20419;-81
2023/02/18 09:38:49;;;;;;;0.43;0.43;;;13.90;93.60;;;;;;5063859;28;20031;-81
2023/02/18 09:41:32;;;;;;;0.50;0.50;;;14.40;93.50;;;;;;5063997;28;20074;-80
2023/02/18 09:44:22;;;;;;;0.52;0.52;;;14.40;92.90;;;;;;5060279;28;20195;-80
2023/02/18 09:46:50;;;;;;;0.80;0.40;;;14.30;93.40;;;;;;5062907;28;20571;-81
2023/02/18 09:49:20;;;;;;;0.20;0.20;;;14.10;92.90;;;;;;5063664;28;20031;-81
2023/02/18 09:51:46;;;;;;;0.73;0.73;;;14.10;93.30;;;;;;5063848;28;20021;-81
2023/02/18 09:54:15;;;;;;;0.17;0.17;;;14.20;92.40;;;;;;5063933;28;20034;-81
2023/02/18 09:56:43;;;;;;;0.20;0.20;;;14.80;92.10;;;;;;5063034;28;20017;-81
2023/02/18 09:59:16;;;;;;;0.22;0.20;;;15.40;91.30;;;;;;5063726;28;20035;-80
2023/02/18 10:01:43;;;;;;;0.82;0.32;;;15.90;89.10;;;;;;5064014;28;20024;-80
2023/02/18 10:04:22;;;;;;;0.63;0.63;;;15.30;90.00;;;;;;5059466;28;20130;-80
2023/02/18 10:06:50;;;;;;;31.23;0.82;;;14.50;91.10;;;;;;5064006;28;20052;-80
2023/02/18 10:09:20;;;;;;;0.20;0.20;;;14.50;91.30;;;;;;5062984;28;20052;-80
2023/02/18 10:11:53;;;;;;;0.10;0.10;;;14.70;91.10;;;;;;5061200;28;20031;-81
2023/02/18 10:14:20;;;;;;;0.57;0.57;;;14.70;91.10;;;;;;5061271;28;20908;-80
2023/02/18 10:16:47;;;;;;;0.98;0.30;;;14.50;91.00;;;;;;5062515;28;20036;-81
2023/02/18 10:19:28;;;;;;;0.35;0.35;;;14.60;91.50;;;;;;5063572;28;20115;-79
2023/02/18 10:21:54;;;;;;;0.10;0.10;;;14.40;91.90;;;;;;5057266;28;20510;-81
2023/02/18 10:24:31;;;;;;;0.22;0.22;;;14.30;92.10;;;;;;5063058;28;20043;-81
2023/02/18 10:26:58;;;;;;;0.20;0.20;;;13.80;92.90;;;;;;5060380;28;20024;-82
2023/02/18 10:29:24;;;;;;;0.35;0.35;;;13.60;93.00;;;;;;5063039;28;20027;-79
2023/02/18 10:31:56;;;;;;;0.20;0.20;;;13.30;93.40;;;;;;5056543;28;20037;-81
2023/02/18 10:35:16;;;;;;;0.77;0.45;;;13.70;94.20;;;;;;5061423;28;20165;-81
2023/02/18 10:38:00;;;;;;;0.45;0.45;;;14.00;93.70;;;;;;5049321;28;20047;-80
2023/02/18 10:40:59;;;;;;;0.50;0.50;;;13.90;93.80;;;;;;5063111;28;20023;-81
2023/02/18 10:43:38;;;;;;;0.28;0.28;;;13.90;94.10;;;;;;5062504;28;20090;-81
2023/02/18 10:46:13;;;;;;;34.67;1.13;;;13.90;94.20;;;;;;5059156;28;20063;-80
2023/02/18 10:48:49;;;;;;;0.13;0.13;;;13.90;94.50;;;;;;5062004;28;20024;-81
2023/02/18 10:51:22;;;;;;;0.20;0.20;;;13.90;94.70;;;;;;5062101;28;20032;-80
2023/02/18 10:53:50;;;;;;;0.08;0.08;;;13.70;94.30;;;;;;5058542;28;20036;-81
2023/02/18 10:57:03;;;;;;;0.73;0.52;;;13.80;94.40;;;;;;5061225;28;20020;-80
2023/02/18 10:59:32;;;;;;;0.10;0.10;;;13.90;94.20;;;;;;5054903;28;20571;-80
2023/02/18 11:02:04;;;;;;;0.10;0.10;;;13.80;94.30;;;;;;5062052;28;20052;-80
2023/02/18 11:04:43;;;;;;;0.73;0.73;;;14.00;94.10;;;;;;5060630;28;20150;-81
2023/02/18 11:07:18;;;;;;;0.20;0.20;;;14.00;93.90;;;;;;5061535;28;20507;-80
2023/02/18 11:09:57;;;;;;;0.00;0.00;;;14.10;94.70;;;;;;5055676;28;20079;-80
2023/02/18 11:12:32;;;;;;;0.28;0.28;;;14.40;95.60;;;;;;5062371;28;20033;-81
2023/02/18 11:15:17;;;;;;;0.17;0.17;;;14.40;94.80;;;;;;5061207;28;20032;-80
2023/02/18 11:17:46;;;;;;;0.32;0.32;;;14.20;94.50;;;;;;5056412;28;20032;-80
2023/02/18 11:20:34;;;;;;;1.08;0.80;;;14.10;94.60;;;;;;5062070;28;20112;-80
2023/02/18 11:23:06;;;;;;;0.10;0.10;;;14.20;95.00;;;;;;5062118;28;20054;-81
2023/02/18 11:25:35;;;;;;;0.00;0.00;;;14.30;94.90;;;;;;5061575;28;20102;-81
2023/02/18 11:28:22;;;;;;;0.10;0.10;;;14.40;95.30;;;;;;5061628;28;20024;-81
2023/02/18 11:30:54;;;;;;;0.00;0.00;;;14.50;96.10;;;;;;5053387;28;20025;-80
2023/02/18 11:33:26;;;;;;;0.20;0.20;;;14.50;94.80;;;;;;5060447;28;20052;-80
2023/02/18 11:35:54;;;;;;;0.95;0.75;;;14.50;95.20;;;;;;5062122;28;20032;-81
2023/02/18 11:38:48;;;;;;;0.40;0.40;;;14.50;95.00;;;;;;5061791;28;20115;-81
2023/02/18 11:41:17;;;;;;;0.00;0.00;;;14.40;95.80;;;;;;5055930;28;20029;-80
2023/02/18 11:43:47;;;;;;;0.30;0.30;;;14.60;96.30;;;;;;5061468;28;20029;-81
2023/02/18 11:46:16;;;;;;;0.20;0.20;;;14.60;95.50;;;;;;5061271;28;20024;-81
2023/02/18 11:48:43;;;;;;;0.63;0.63;;;14.70;96.50;;;;;;5061450;28;20028;-81
2023/02/18 11:51:14;;;;;;;0.05;0.05;;;15.30;98.50;;;;;;5061604;28;20039;-81
2023/02/18 11:53:54;;;;;;;0.22;0.22;;;15.70;98.50;;;;;;5061674;28;20021;-80
2023/02/18 11:56:20;;;;;;;0.15;0.15;;;16.00;97.50;;;;;;5060998;28;20028;-81
2023/02/18 11:58:47;;;;;;;0.10;0.10;;;15.90;97.30;;;;;;5061844;28;20517;-79
2023/02/18 12:01:30;;;;;;;0.17;0.17;;;15.60;94.80;;;;;;5057039;28;20535;-80
2023/02/18 12:04:03;;;;;;;0.32;0.32;;;15.30;96.60;;;;;;5056832;28;20059;-83
2023/02/18 12:06:44;;;;;;;0.00;0.00;;;15.10;96.70;;;;;;5057837;28;20048;-86
2023/02/18 12:09:33;;;;;;;0.20;0.20;;;15.00;97.20;;;;;;5055813;28;20033;-83
2023/02/18 12:12:03;;;;;;;1.60;1.20;;;14.90;97.00;;;;;;5056733;28;20538;-83
2023/02/18 12:14:29;;;;;;;1.40;0.25;;;15.10;97.80;;;;;;5057515;28;20028;-85
2023/02/18 12:17:18;;;;;;;1.13;1.03;;;15.20;98.80;;;;;;5052648;28;20036;-81
2023/02/18 12:20:05;;;;;;;2.47;0.93;;;15.00;98.70;;;;;;5054579;28;20066;-83
2023/02/18 12:22:44;;;;;;;0.65;0.65;;;14.80;97.80;;;;;;5052351;28;20046;-87
2023/02/18 12:25:23;;;;;;;0.25;0.25;;;14.80;98.20;;;;;;5059825;28;20048;-83
2023/02/18 12:28:00;;;;;;;0.30;0.30;;;14.70;97.70;;;;;;5061372;28;20044;-85
2023/02/18 12:30:31;;;;;;;0.40;0.40;;;14.70;98.00;;;;;;5057761;28;20028;-87
2023/02/18 12:33:11;;;;;;;0.10;0.10;;;14.70;97.30;;;;;;5060909;28;20019;-85
2023/02/18 12:36:11;;;;;;;0.85;0.85;;;14.70;98.40;;;;;;5053410;28;20063;-83
2023/02/18 12:39:28;;;;;;;0.73;0.68;;;14.70;98.20;;;;;;5060018;28;20029;-82
2023/02/18 12:42:24;;;;;;;0.28;0.28;;;14.80;98.90;;;;;;5028400;28;20036;-85
2023/02/18 12:44:56;;;;;;;0.28;0.28;;;14.70;98.60;;;;;;5061426;28;20025;-80
2023/02/18 12:47:42;;;;;;;0.30;0.30;;;14.70;98.70;;;;;;5059608;28;20044;-83
2023/02/18 12:50:34;;;;;;;0.20;0.20;;;14.70;98.90;;;;;;5061264;28;20021;-82
2023/02/18 12:53:31;;;;;;;0.88;0.80;;;14.60;98.20;;;;;;5053163;28;20500;-86
2023/02/18 12:56:15;;;;;;;0.30;0.30;;;14.70;98.10;;;;;;5047200;28;20043;-80
2023/02/18 12:58:56;;;;;;;0.17;0.17;;;14.70;98.80;;;;;;5051275;28;20032;-83
2023/02/18 13:01:21;;;;;;;0.25;0.25;;;14.60;97.80;;;;;;5048665;28;20400;-82
2023/02/18 13:04:09;;;;;;;0.43;0.43;;;14.50;97.20;;;;;;5049494;28;20063;-82
2023/02/18 13:06:49;;;;;;;0.15;0.15;;;14.50;98.00;;;;;;5060048;28;20074;-79
2023/02/18 13:09:46;;;;;;;0.10;0.10;;;14.40;96.90;;;;;;5055723;28;20028;-82
2023/02/18 13:12:11;;;;;;;;;;;14.50;97.50;;;;;;5051712;28;20029;-82